sensor_id;sensor_type;location;lat;lon;timestamp;P1;durP1;ratioP1;P2;durP2;ratioP2
24637;SDS011;12773;50.162;8.548;2024-01-10T00:01:24;31.20;;;11.35;;
24637;SDS011;12773;50.162;8.548;2024-01-10T00:04:12;31.82;;;10.95;;
24637;SDS011;12773;50.162;8.548;2024-01-10T00:07:02;32.90;;;11.93;;
24637;SDS011;12773;50.162;8.548;2024-01-10T00:09:50;32.42;;;11.88;;
24637;SDS011;12773;50.162;8.548;2024-01-10T00:12:38;33.95;;;12.05;;
24637;SDS011;12773;50.162;8.548;2024-01-10T00:15:25;29.67;;;11.68;;
24637;SDS011;12773;50.162;8.548;2024-01-10T00:18:13;36.15;;;11.93;;
24637;SDS011;12773;50.162;8.548;2024-01-10T00:21:02;30.45;;;11.60;;
24637;SDS011;12773;50.162;8.548;2024-01-10T00:23:50;29.02;;;11.55;;
24637;SDS011;12773;50.162;8.548;2024-01-10T00:26:37;28.90;;;11.73;;
24637;SDS011;12773;50.162;8.548;2024-01-10T00:29:25;32.03;;;12.40;;
24637;SDS011;12773;50.162;8.548;2024-01-10T00:32:12;34.18;;;12.50;;
24637;SDS011;12773;50.162;8.548;2024-01-10T00:35:00;31.73;;;12.03;;
24637;SDS011;12773;50.162;8.548;2024-01-10T00:37:48;36.93;;;13.15;;
24637;SDS011;12773;50.162;8.548;2024-01-10T00:40:36;33.15;;;13.38;;
24637;SDS011;12773;50.162;8.548;2024-01-10T00:43:23;44.20;;;14.35;;
24637;SDS011;12773;50.162;8.548;2024-01-10T00:46:11;41.45;;;14.53;;
24637;SDS011;12773;50.162;8.548;2024-01-10T00:48:59;38.73;;;14.40;;
24637;SDS011;12773;50.162;8.548;2024-01-10T00:51:47;39.15;;;14.95;;
24637;SDS011;12773;50.162;8.548;2024-01-10T00:54:34;41.20;;;14.93;;
24637;SDS011;12773;50.162;8.548;2024-01-10T00:57:22;40.78;;;14.93;;
24637;SDS011;12773;50.162;8.548;2024-01-10T01:00:09;43.78;;;15.08;;
24637;SDS011;12773;50.162;8.548;2024-01-10T01:02:58;45.63;;;16.30;;
24637;SDS011;12773;50.162;8.548;2024-01-10T01:05:45;49.27;;;17.30;;
24637;SDS011;12773;50.162;8.548;2024-01-10T01:08:33;42.25;;;14.70;;
24637;SDS011;12773;50.162;8.548;2024-01-10T01:11:20;46.18;;;15.93;;
24637;SDS011;12773;50.162;8.548;2024-01-10T01:14:08;43.95;;;15.65;;
24637;SDS011;12773;50.162;8.548;2024-01-10T01:16:56;47.67;;;16.10;;
24637;SDS011;12773;50.162;8.548;2024-01-10T01:19:43;47.90;;;17.62;;
24637;SDS011;12773;50.162;8.548;2024-01-10T01:22:31;42.88;;;15.72;;
24637;SDS011;12773;50.162;8.548;2024-01-10T01:25:19;45.67;;;16.27;;
24637;SDS011;12773;50.162;8.548;2024-01-10T01:28:07;48.23;;;16.65;;
24637;SDS011;12773;50.162;8.548;2024-01-10T01:30:54;47.75;;;16.82;;
24637;SDS011;12773;50.162;8.548;2024-01-10T01:33:42;46.45;;;16.48;;
24637;SDS011;12773;50.162;8.548;2024-01-10T01:36:29;53.28;;;17.60;;
24637;SDS011;12773;50.162;8.548;2024-01-10T01:39:17;52.90;;;17.15;;
24637;SDS011;12773;50.162;8.548;2024-01-10T01:42:05;59.13;;;19.40;;
24637;SDS011;12773;50.162;8.548;2024-01-10T01:44:53;50.75;;;17.67;;
24637;SDS011;12773;50.162;8.548;2024-01-10T01:47:40;44.58;;;17.82;;
24637;SDS011;12773;50.162;8.548;2024-01-10T01:50:28;51.95;;;17.90;;
24637;SDS011;12773;50.162;8.548;2024-01-10T01:53:15;48.75;;;17.17;;
24637;SDS011;12773;50.162;8.548;2024-01-10T01:56:06;48.78;;;17.35;;
24637;SDS011;12773;50.162;8.548;2024-01-10T01:58:55;47.85;;;17.27;;
24637;SDS011;12773;50.162;8.548;2024-01-10T02:01:43;46.92;;;16.82;;
24637;SDS011;12773;50.162;8.548;2024-01-10T02:04:30;48.28;;;15.88;;
24637;SDS011;12773;50.162;8.548;2024-01-10T02:07:17;49.05;;;17.07;;
24637;SDS011;12773;50.162;8.548;2024-01-10T02:10:05;50.50;;;16.73;;
24637;SDS011;12773;50.162;8.548;2024-01-10T02:12:53;44.73;;;16.70;;
24637;SDS011;12773;50.162;8.548;2024-01-10T02:15:41;45.60;;;17.12;;
24637;SDS011;12773;50.162;8.548;2024-01-10T02:18:29;48.02;;;17.42;;
24637;SDS011;12773;50.162;8.548;2024-01-10T02:21:20;52.95;;;17.73;;
24637;SDS011;12773;50.162;8.548;2024-01-10T02:24:08;52.45;;;18.48;;
24637;SDS011;12773;50.162;8.548;2024-01-10T02:26:56;49.23;;;17.05;;
24637;SDS011;12773;50.162;8.548;2024-01-10T02:29:44;52.05;;;16.77;;
24637;SDS011;12773;50.162;8.548;2024-01-10T02:32:31;49.63;;;17.98;;
24637;SDS011;12773;50.162;8.548;2024-01-10T02:35:19;51.33;;;17.30;;
24637;SDS011;12773;50.162;8.548;2024-01-10T02:38:06;51.23;;;17.37;;
24637;SDS011;12773;50.162;8.548;2024-01-10T02:40:54;51.68;;;17.92;;
24637;SDS011;12773;50.162;8.548;2024-01-10T02:43:42;48.98;;;17.10;;
24637;SDS011;12773;50.162;8.548;2024-01-10T02:46:30;50.67;;;18.05;;
24637;SDS011;12773;50.162;8.548;2024-01-10T02:49:17;52.50;;;18.55;;
24637;SDS011;12773;50.162;8.548;2024-01-10T02:52:05;52.95;;;18.67;;
24637;SDS011;12773;50.162;8.548;2024-01-10T02:54:53;43.63;;;17.07;;
24637;SDS011;12773;50.162;8.548;2024-01-10T02:57:40;56.33;;;17.57;;
24637;SDS011;12773;50.162;8.548;2024-01-10T03:00:28;47.75;;;17.27;;
24637;SDS011;12773;50.162;8.548;2024-01-10T03:03:15;53.17;;;19.67;;
24637;SDS011;12773;50.162;8.548;2024-01-10T03:06:03;52.27;;;18.42;;
24637;SDS011;12773;50.162;8.548;2024-01-10T03:08:51;50.33;;;17.95;;
24637;SDS011;12773;50.162;8.548;2024-01-10T03:11:38;53.38;;;19.15;;
24637;SDS011;12773;50.162;8.548;2024-01-10T03:14:25;56.77;;;19.00;;
24637;SDS011;12773;50.162;8.548;2024-01-10T03:17:13;48.65;;;19.00;;
24637;SDS011;12773;50.162;8.548;2024-01-10T03:20:02;54.95;;;19.00;;
24637;SDS011;12773;50.162;8.548;2024-01-10T03:22:50;48.80;;;18.02;;
24637;SDS011;12773;50.162;8.548;2024-01-10T03:25:37;51.80;;;18.57;;
24637;SDS011;12773;50.162;8.548;2024-01-10T03:28:25;53.00;;;18.87;;
24637;SDS011;12773;50.162;8.548;2024-01-10T03:31:15;58.90;;;20.90;;
24637;SDS011;12773;50.162;8.548;2024-01-10T03:34:03;52.58;;;19.55;;
24637;SDS011;12773;50.162;8.548;2024-01-10T03:36:51;56.15;;;18.90;;
24637;SDS011;12773;50.162;8.548;2024-01-10T03:39:39;50.67;;;19.65;;
24637;SDS011;12773;50.162;8.548;2024-01-10T03:42:27;58.23;;;20.70;;
24637;SDS011;12773;50.162;8.548;2024-01-10T03:45:14;54.80;;;19.50;;
24637;SDS011;12773;50.162;8.548;2024-01-10T03:48:06;53.68;;;18.80;;
24637;SDS011;12773;50.162;8.548;2024-01-10T03:50:53;52.33;;;18.82;;
24637;SDS011;12773;50.162;8.548;2024-01-10T03:53:41;54.90;;;19.05;;
24637;SDS011;12773;50.162;8.548;2024-01-10T03:56:28;48.20;;;17.40;;
24637;SDS011;12773;50.162;8.548;2024-01-10T03:59:17;54.15;;;18.35;;
24637;SDS011;12773;50.162;8.548;2024-01-10T04:02:05;54.80;;;18.50;;
24637;SDS011;12773;50.162;8.548;2024-01-10T04:04:53;55.15;;;19.48;;
24637;SDS011;12773;50.162;8.548;2024-01-10T04:07:40;53.20;;;17.45;;
24637;SDS011;12773;50.162;8.548;2024-01-10T04:10:30;54.70;;;18.55;;
24637;SDS011;12773;50.162;8.548;2024-01-10T04:13:18;54.23;;;18.45;;
24637;SDS011;12773;50.162;8.548;2024-01-10T04:16:06;52.60;;;18.48;;
24637;SDS011;12773;50.162;8.548;2024-01-10T04:18:53;51.13;;;17.77;;
24637;SDS011;12773;50.162;8.548;2024-01-10T04:21:41;49.73;;;17.50;;
24637;SDS011;12773;50.162;8.548;2024-01-10T04:24:29;50.10;;;17.77;;
24637;SDS011;12773;50.162;8.548;2024-01-10T04:27:17;51.92;;;19.23;;
24637;SDS011;12773;50.162;8.548;2024-01-10T04:30:04;49.95;;;18.00;;
24637;SDS011;12773;50.162;8.548;2024-01-10T04:32:52;51.90;;;16.85;;
24637;SDS011;12773;50.162;8.548;2024-01-10T04:35:40;45.10;;;16.93;;
24637;SDS011;12773;50.162;8.548;2024-01-10T04:38:27;45.50;;;16.15;;
24637;SDS011;12773;50.162;8.548;2024-01-10T04:41:15;44.98;;;15.55;;
24637;SDS011;12773;50.162;8.548;2024-01-10T04:44:03;42.90;;;15.75;;
24637;SDS011;12773;50.162;8.548;2024-01-10T04:46:50;49.13;;;15.50;;
24637;SDS011;12773;50.162;8.548;2024-01-10T04:49:38;46.40;;;15.63;;
24637;SDS011;12773;50.162;8.548;2024-01-10T04:52:25;43.40;;;15.40;;
24637;SDS011;12773;50.162;8.548;2024-01-10T04:55:13;39.33;;;14.23;;
24637;SDS011;12773;50.162;8.548;2024-01-10T04:58:00;34.35;;;13.68;;
24637;SDS011;12773;50.162;8.548;2024-01-10T05:00:49;41.70;;;14.58;;
24637;SDS011;12773;50.162;8.548;2024-01-10T05:03:36;41.25;;;13.55;;
24637;SDS011;12773;50.162;8.548;2024-01-10T05:06:24;35.40;;;13.20;;
24637;SDS011;12773;50.162;8.548;2024-01-10T05:09:12;36.25;;;12.35;;
24637;SDS011;12773;50.162;8.548;2024-01-10T05:11:59;38.55;;;14.93;;
24637;SDS011;12773;50.162;8.548;2024-01-10T05:14:47;35.92;;;12.53;;
24637;SDS011;12773;50.162;8.548;2024-01-10T05:17:34;40.52;;;13.28;;
24637;SDS011;12773;50.162;8.548;2024-01-10T05:20:21;38.15;;;13.98;;
24637;SDS011;12773;50.162;8.548;2024-01-10T05:23:09;37.67;;;12.78;;
24637;SDS011;12773;50.162;8.548;2024-01-10T05:25:57;38.70;;;13.78;;
24637;SDS011;12773;50.162;8.548;2024-01-10T05:28:47;35.23;;;13.20;;
24637;SDS011;12773;50.162;8.548;2024-01-10T05:31:34;32.23;;;12.85;;
24637;SDS011;12773;50.162;8.548;2024-01-10T05:34:21;37.42;;;14.05;;
24637;SDS011;12773;50.162;8.548;2024-01-10T05:37:09;39.33;;;13.32;;
24637;SDS011;12773;50.162;8.548;2024-01-10T05:39:57;38.23;;;14.45;;
24637;SDS011;12773;50.162;8.548;2024-01-10T05:42:44;43.63;;;15.08;;
24637;SDS011;12773;50.162;8.548;2024-01-10T05:45:32;36.00;;;13.78;;
24637;SDS011;12773;50.162;8.548;2024-01-10T05:48:20;35.20;;;13.00;;
24637;SDS011;12773;50.162;8.548;2024-01-10T05:51:07;39.20;;;14.90;;
24637;SDS011;12773;50.162;8.548;2024-01-10T05:53:55;42.80;;;15.60;;
24637;SDS011;12773;50.162;8.548;2024-01-10T05:56:42;40.10;;;15.08;;
24637;SDS011;12773;50.162;8.548;2024-01-10T05:59:29;45.50;;;15.45;;
24637;SDS011;12773;50.162;8.548;2024-01-10T06:02:17;37.45;;;14.33;;
24637;SDS011;12773;50.162;8.548;2024-01-10T06:05:09;43.83;;;15.32;;
24637;SDS011;12773;50.162;8.548;2024-01-10T06:07:56;42.93;;;15.30;;
24637;SDS011;12773;50.162;8.548;2024-01-10T06:10:44;44.03;;;17.48;;
24637;SDS011;12773;50.162;8.548;2024-01-10T06:13:32;52.50;;;18.50;;
24637;SDS011;12773;50.162;8.548;2024-01-10T06:16:21;53.90;;;18.87;;
24637;SDS011;12773;50.162;8.548;2024-01-10T06:19:08;47.55;;;17.42;;
24637;SDS011;12773;50.162;8.548;2024-01-10T06:21:57;50.50;;;16.85;;
24637;SDS011;12773;50.162;8.548;2024-01-10T06:24:47;47.38;;;17.45;;
24637;SDS011;12773;50.162;8.548;2024-01-10T06:27:35;48.95;;;17.30;;
24637;SDS011;12773;50.162;8.548;2024-01-10T06:30:22;52.53;;;17.45;;
24637;SDS011;12773;50.162;8.548;2024-01-10T06:33:13;51.68;;;18.42;;
24637;SDS011;12773;50.162;8.548;2024-01-10T06:36:01;51.05;;;18.80;;
24637;SDS011;12773;50.162;8.548;2024-01-10T06:38:49;56.60;;;18.45;;
24637;SDS011;12773;50.162;8.548;2024-01-10T06:41:37;57.58;;;20.82;;
24637;SDS011;12773;50.162;8.548;2024-01-10T06:44:26;57.88;;;19.07;;
24637;SDS011;12773;50.162;8.548;2024-01-10T06:47:14;54.23;;;18.45;;
24637;SDS011;12773;50.162;8.548;2024-01-10T06:50:02;44.40;;;17.45;;
24637;SDS011;12773;50.162;8.548;2024-01-10T06:52:51;48.33;;;17.35;;
24637;SDS011;12773;50.162;8.548;2024-01-10T06:55:38;51.65;;;19.15;;
24637;SDS011;12773;50.162;8.548;2024-01-10T06:58:26;42.73;;;17.37;;
24637;SDS011;12773;50.162;8.548;2024-01-10T07:01:13;58.02;;;19.20;;
24637;SDS011;12773;50.162;8.548;2024-01-10T07:04:02;51.13;;;19.80;;
24637;SDS011;12773;50.162;8.548;2024-01-10T07:06:50;45.92;;;17.92;;
24637;SDS011;12773;50.162;8.548;2024-01-10T07:09:38;54.85;;;19.45;;
24637;SDS011;12773;50.162;8.548;2024-01-10T07:12:26;40.67;;;17.30;;
24637;SDS011;12773;50.162;8.548;2024-01-10T07:15:14;47.90;;;16.40;;
24637;SDS011;12773;50.162;8.548;2024-01-10T07:18:02;47.38;;;16.50;;
24637;SDS011;12773;50.162;8.548;2024-01-10T07:20:49;53.23;;;17.90;;
24637;SDS011;12773;50.162;8.548;2024-01-10T07:23:38;45.45;;;16.90;;
24637;SDS011;12773;50.162;8.548;2024-01-10T07:26:27;50.75;;;18.27;;
24637;SDS011;12773;50.162;8.548;2024-01-10T07:29:14;51.40;;;18.32;;
24637;SDS011;12773;50.162;8.548;2024-01-10T07:32:02;46.55;;;17.20;;
24637;SDS011;12773;50.162;8.548;2024-01-10T07:34:50;52.98;;;18.02;;
24637;SDS011;12773;50.162;8.548;2024-01-10T07:37:38;51.98;;;17.90;;
24637;SDS011;12773;50.162;8.548;2024-01-10T07:40:32;57.48;;;19.52;;
24637;SDS011;12773;50.162;8.548;2024-01-10T07:43:15;53.05;;;17.60;;
24637;SDS011;12773;50.162;8.548;2024-01-10T07:46:03;54.15;;;19.42;;
24637;SDS011;12773;50.162;8.548;2024-01-10T07:48:50;58.68;;;20.65;;
24637;SDS011;12773;50.162;8.548;2024-01-10T07:51:38;59.58;;;21.73;;
24637;SDS011;12773;50.162;8.548;2024-01-10T07:54:25;53.70;;;19.52;;
24637;SDS011;12773;50.162;8.548;2024-01-10T07:57:13;52.50;;;18.32;;
24637;SDS011;12773;50.162;8.548;2024-01-10T08:00:03;84.60;;;31.55;;
24637;SDS011;12773;50.162;8.548;2024-01-10T08:02:51;62.55;;;23.67;;
24637;SDS011;12773;50.162;8.548;2024-01-10T08:05:38;45.73;;;18.30;;
24637;SDS011;12773;50.162;8.548;2024-01-10T08:08:26;53.02;;;18.35;;
24637;SDS011;12773;50.162;8.548;2024-01-10T08:11:14;55.05;;;19.60;;
24637;SDS011;12773;50.162;8.548;2024-01-10T08:14:01;49.10;;;18.95;;
24637;SDS011;12773;50.162;8.548;2024-01-10T08:16:48;49.90;;;18.82;;
24637;SDS011;12773;50.162;8.548;2024-01-10T08:19:38;49.40;;;18.62;;
24637;SDS011;12773;50.162;8.548;2024-01-10T08:22:25;51.15;;;20.70;;
24637;SDS011;12773;50.162;8.548;2024-01-10T08:25:13;52.08;;;18.87;;
24637;SDS011;12773;50.162;8.548;2024-01-10T08:28:02;56.83;;;19.62;;
24637;SDS011;12773;50.162;8.548;2024-01-10T08:30:49;49.98;;;18.10;;
24637;SDS011;12773;50.162;8.548;2024-01-10T08:33:38;52.40;;;18.45;;
24637;SDS011;12773;50.162;8.548;2024-01-10T08:36:25;54.27;;;18.90;;
24637;SDS011;12773;50.162;8.548;2024-01-10T08:39:13;55.48;;;19.20;;
24637;SDS011;12773;50.162;8.548;2024-01-10T08:42:01;48.92;;;19.30;;
24637;SDS011;12773;50.162;8.548;2024-01-10T08:44:49;48.40;;;17.77;;
24637;SDS011;12773;50.162;8.548;2024-01-10T08:47:36;44.80;;;16.50;;
24637;SDS011;12773;50.162;8.548;2024-01-10T08:50:24;48.55;;;18.45;;
24637;SDS011;12773;50.162;8.548;2024-01-10T08:53:12;50.15;;;17.87;;
24637;SDS011;12773;50.162;8.548;2024-01-10T08:55:59;43.95;;;17.40;;
24637;SDS011;12773;50.162;8.548;2024-01-10T08:58:46;43.70;;;18.90;;
24637;SDS011;12773;50.162;8.548;2024-01-10T09:01:34;45.95;;;17.17;;
24637;SDS011;12773;50.162;8.548;2024-01-10T09:04:21;42.23;;;16.15;;
24637;SDS011;12773;50.162;8.548;2024-01-10T09:07:10;45.00;;;16.95;;
24637;SDS011;12773;50.162;8.548;2024-01-10T09:09:58;46.83;;;18.30;;
24637;SDS011;12773;50.162;8.548;2024-01-10T09:12:47;50.28;;;18.65;;
24637;SDS011;12773;50.162;8.548;2024-01-10T09:15:35;43.92;;;16.93;;
24637;SDS011;12773;50.162;8.548;2024-01-10T09:18:22;47.80;;;16.35;;
24637;SDS011;12773;50.162;8.548;2024-01-10T09:21:10;41.90;;;16.73;;
24637;SDS011;12773;50.162;8.548;2024-01-10T09:23:58;45.65;;;17.20;;
24637;SDS011;12773;50.162;8.548;2024-01-10T09:26:47;40.38;;;16.48;;
24637;SDS011;12773;50.162;8.548;2024-01-10T09:29:34;44.27;;;17.17;;
24637;SDS011;12773;50.162;8.548;2024-01-10T09:32:22;45.48;;;18.65;;
24637;SDS011;12773;50.162;8.548;2024-01-10T09:35:09;50.23;;;17.48;;
24637;SDS011;12773;50.162;8.548;2024-01-10T09:37:57;48.28;;;17.90;;
24637;SDS011;12773;50.162;8.548;2024-01-10T09:40:46;45.15;;;18.50;;
24637;SDS011;12773;50.162;8.548;2024-01-10T09:43:33;48.00;;;17.25;;
24637;SDS011;12773;50.162;8.548;2024-01-10T09:46:20;46.20;;;17.45;;
24637;SDS011;12773;50.162;8.548;2024-01-10T09:49:08;50.00;;;18.50;;
24637;SDS011;12773;50.162;8.548;2024-01-10T09:51:59;54.85;;;18.80;;
24637;SDS011;12773;50.162;8.548;2024-01-10T09:54:48;55.12;;;18.67;;
24637;SDS011;12773;50.162;8.548;2024-01-10T09:57:42;50.52;;;19.35;;
24637;SDS011;12773;50.162;8.548;2024-01-10T10:00:30;59.55;;;20.10;;
24637;SDS011;12773;50.162;8.548;2024-01-10T10:03:22;47.65;;;18.02;;
24637;SDS011;12773;50.162;8.548;2024-01-10T10:06:10;51.60;;;20.00;;
24637;SDS011;12773;50.162;8.548;2024-01-10T10:08:59;51.95;;;18.12;;
24637;SDS011;12773;50.162;8.548;2024-01-10T10:11:52;46.13;;;19.73;;
24637;SDS011;12773;50.162;8.548;2024-01-10T10:14:37;46.23;;;17.20;;
24637;SDS011;12773;50.162;8.548;2024-01-10T10:17:24;46.50;;;17.17;;
24637;SDS011;12773;50.162;8.548;2024-01-10T10:20:25;55.50;;;18.02;;
24637;SDS011;12773;50.162;8.548;2024-01-10T10:23:15;50.00;;;19.00;;
24637;SDS011;12773;50.162;8.548;2024-01-10T10:26:17;47.00;;;17.57;;
24637;SDS011;12773;50.162;8.548;2024-01-10T10:29:06;49.20;;;17.67;;
24637;SDS011;12773;50.162;8.548;2024-01-10T10:31:55;51.15;;;17.75;;
24637;SDS011;12773;50.162;8.548;2024-01-10T10:34:42;51.68;;;17.67;;
24637;SDS011;12773;50.162;8.548;2024-01-10T10:37:30;45.23;;;16.77;;
24637;SDS011;12773;50.162;8.548;2024-01-10T10:40:17;49.50;;;18.67;;
24637;SDS011;12773;50.162;8.548;2024-01-10T10:43:05;48.92;;;18.17;;
24637;SDS011;12773;50.162;8.548;2024-01-10T10:45:56;42.10;;;16.85;;
24637;SDS011;12773;50.162;8.548;2024-01-10T10:48:44;44.73;;;17.42;;
24637;SDS011;12773;50.162;8.548;2024-01-10T10:51:34;48.60;;;17.75;;
24637;SDS011;12773;50.162;8.548;2024-01-10T10:54:22;41.90;;;16.62;;
24637;SDS011;12773;50.162;8.548;2024-01-10T10:57:14;50.28;;;17.37;;
24637;SDS011;12773;50.162;8.548;2024-01-10T11:00:06;48.85;;;17.52;;
24637;SDS011;12773;50.162;8.548;2024-01-10T11:02:56;48.75;;;16.90;;
24637;SDS011;12773;50.162;8.548;2024-01-10T11:05:44;44.15;;;16.12;;
24637;SDS011;12773;50.162;8.548;2024-01-10T11:08:52;46.42;;;17.27;;
24637;SDS011;12773;50.162;8.548;2024-01-10T11:11:57;53.80;;;17.87;;
24637;SDS011;12773;50.162;8.548;2024-01-10T11:14:52;45.95;;;17.70;;
24637;SDS011;12773;50.162;8.548;2024-01-10T11:21:06;48.80;;;17.25;;
24637;SDS011;12773;50.162;8.548;2024-01-10T11:24:08;44.65;;;15.95;;
24637;SDS011;12773;50.162;8.548;2024-01-10T11:29:58;47.88;;;16.73;;
24637;SDS011;12773;50.162;8.548;2024-01-10T11:32:49;43.92;;;16.85;;
24637;SDS011;12773;50.162;8.548;2024-01-10T11:35:36;46.33;;;16.97;;
24637;SDS011;12773;50.162;8.548;2024-01-10T11:38:24;45.33;;;16.82;;
24637;SDS011;12773;50.162;8.548;2024-01-10T11:41:21;38.58;;;15.95;;
24637;SDS011;12773;50.162;8.548;2024-01-10T11:44:27;44.75;;;15.70;;
24637;SDS011;12773;50.162;8.548;2024-01-10T11:47:19;40.20;;;16.52;;
24637;SDS011;12773;50.162;8.548;2024-01-10T11:50:07;42.38;;;16.15;;
24637;SDS011;12773;50.162;8.548;2024-01-10T11:52:55;48.42;;;18.85;;
24637;SDS011;12773;50.162;8.548;2024-01-10T11:55:46;44.90;;;18.75;;
24637;SDS011;12773;50.162;8.548;2024-01-10T11:58:51;35.05;;;14.50;;
24637;SDS011;12773;50.162;8.548;2024-01-10T12:01:44;36.55;;;14.73;;
24637;SDS011;12773;50.162;8.548;2024-01-10T12:04:32;42.53;;;14.80;;
24637;SDS011;12773;50.162;8.548;2024-01-10T12:07:21;36.65;;;14.58;;
24637;SDS011;12773;50.162;8.548;2024-01-10T12:10:10;38.00;;;15.63;;
24637;SDS011;12773;50.162;8.548;2024-01-10T12:12:58;38.88;;;15.63;;
24637;SDS011;12773;50.162;8.548;2024-01-10T12:15:46;41.88;;;15.55;;
24637;SDS011;12773;50.162;8.548;2024-01-10T12:18:33;38.23;;;14.95;;
24637;SDS011;12773;50.162;8.548;2024-01-10T12:21:21;46.35;;;16.05;;
24637;SDS011;12773;50.162;8.548;2024-01-10T12:24:09;40.45;;;15.38;;
24637;SDS011;12773;50.162;8.548;2024-01-10T12:26:56;41.88;;;15.85;;
24637;SDS011;12773;50.162;8.548;2024-01-10T12:29:47;39.03;;;15.32;;
24637;SDS011;12773;50.162;8.548;2024-01-10T12:32:37;41.92;;;16.37;;
24637;SDS011;12773;50.162;8.548;2024-01-10T12:35:24;42.30;;;16.82;;
24637;SDS011;12773;50.162;8.548;2024-01-10T12:38:12;39.60;;;14.68;;
24637;SDS011;12773;50.162;8.548;2024-01-10T12:40:59;41.40;;;16.40;;
24637;SDS011;12773;50.162;8.548;2024-01-10T12:43:52;45.43;;;16.23;;
24637;SDS011;12773;50.162;8.548;2024-01-10T12:46:50;44.38;;;15.70;;
24637;SDS011;12773;50.162;8.548;2024-01-10T12:49:38;44.30;;;17.00;;
24637;SDS011;12773;50.162;8.548;2024-01-10T12:52:26;41.75;;;15.48;;
24637;SDS011;12773;50.162;8.548;2024-01-10T12:55:14;42.20;;;15.45;;
24637;SDS011;12773;50.162;8.548;2024-01-10T12:58:03;46.05;;;16.30;;
24637;SDS011;12773;50.162;8.548;2024-01-10T13:00:52;45.00;;;16.10;;
24637;SDS011;12773;50.162;8.548;2024-01-10T13:03:39;44.83;;;15.88;;
24637;SDS011;12773;50.162;8.548;2024-01-10T13:06:28;47.33;;;17.20;;
24637;SDS011;12773;50.162;8.548;2024-01-10T13:09:15;42.95;;;15.75;;
24637;SDS011;12773;50.162;8.548;2024-01-10T13:12:03;41.68;;;15.60;;
24637;SDS011;12773;50.162;8.548;2024-01-10T13:14:50;44.10;;;15.78;;
24637;SDS011;12773;50.162;8.548;2024-01-10T13:17:38;45.95;;;16.17;;
24637;SDS011;12773;50.162;8.548;2024-01-10T13:20:26;44.00;;;16.05;;
24637;SDS011;12773;50.162;8.548;2024-01-10T13:23:17;45.08;;;16.23;;
24637;SDS011;12773;50.162;8.548;2024-01-10T13:26:05;40.05;;;15.70;;
24637;SDS011;12773;50.162;8.548;2024-01-10T13:28:53;40.83;;;14.38;;
24637;SDS011;12773;50.162;8.548;2024-01-10T13:31:40;38.67;;;15.00;;
24637;SDS011;12773;50.162;8.548;2024-01-10T13:34:28;37.63;;;13.68;;
24637;SDS011;12773;50.162;8.548;2024-01-10T13:37:15;34.38;;;13.05;;
24637;SDS011;12773;50.162;8.548;2024-01-10T13:40:03;37.35;;;14.90;;
24637;SDS011;12773;50.162;8.548;2024-01-10T13:42:57;40.50;;;13.98;;
24637;SDS011;12773;50.162;8.548;2024-01-10T13:45:46;34.60;;;13.62;;
24637;SDS011;12773;50.162;8.548;2024-01-10T13:48:33;42.05;;;14.87;;
24637;SDS011;12773;50.162;8.548;2024-01-10T13:51:22;35.90;;;14.13;;
24637;SDS011;12773;50.162;8.548;2024-01-10T13:54:09;33.23;;;12.58;;
24637;SDS011;12773;50.162;8.548;2024-01-10T13:56:57;37.55;;;14.28;;
24637;SDS011;12773;50.162;8.548;2024-01-10T13:59:44;35.50;;;12.65;;
24637;SDS011;12773;50.162;8.548;2024-01-10T14:02:33;35.45;;;14.38;;
24637;SDS011;12773;50.162;8.548;2024-01-10T14:05:22;34.18;;;13.20;;
24637;SDS011;12773;50.162;8.548;2024-01-10T14:08:09;33.75;;;12.90;;
24637;SDS011;12773;50.162;8.548;2024-01-10T14:10:57;34.20;;;13.88;;
24637;SDS011;12773;50.162;8.548;2024-01-10T14:13:45;36.17;;;13.60;;
24637;SDS011;12773;50.162;8.548;2024-01-10T14:16:32;33.45;;;12.98;;
24637;SDS011;12773;50.162;8.548;2024-01-10T14:19:20;37.88;;;14.35;;
24637;SDS011;12773;50.162;8.548;2024-01-10T14:22:10;35.48;;;13.32;;
24637;SDS011;12773;50.162;8.548;2024-01-10T14:24:59;31.17;;;11.97;;
24637;SDS011;12773;50.162;8.548;2024-01-10T14:27:48;29.77;;;12.47;;
24637;SDS011;12773;50.162;8.548;2024-01-10T14:30:36;34.48;;;12.88;;
24637;SDS011;12773;50.162;8.548;2024-01-10T14:33:23;32.50;;;12.80;;
24637;SDS011;12773;50.162;8.548;2024-01-10T14:36:11;37.58;;;14.00;;
24637;SDS011;12773;50.162;8.548;2024-01-10T14:38:58;34.20;;;13.75;;
24637;SDS011;12773;50.162;8.548;2024-01-10T14:41:46;37.05;;;13.25;;
24637;SDS011;12773;50.162;8.548;2024-01-10T14:44:34;32.38;;;13.18;;
24637;SDS011;12773;50.162;8.548;2024-01-10T14:47:22;33.73;;;12.43;;
24637;SDS011;12773;50.162;8.548;2024-01-10T14:50:10;38.02;;;12.98;;
24637;SDS011;12773;50.162;8.548;2024-01-10T14:52:57;35.45;;;13.38;;
24637;SDS011;12773;50.162;8.548;2024-01-10T14:55:45;35.55;;;13.48;;
24637;SDS011;12773;50.162;8.548;2024-01-10T14:58:33;37.70;;;14.10;;
24637;SDS011;12773;50.162;8.548;2024-01-10T15:01:20;42.88;;;13.75;;
24637;SDS011;12773;50.162;8.548;2024-01-10T15:04:08;32.00;;;13.25;;
24637;SDS011;12773;50.162;8.548;2024-01-10T15:06:55;37.20;;;14.33;;
24637;SDS011;12773;50.162;8.548;2024-01-10T15:09:43;40.83;;;14.28;;
24637;SDS011;12773;50.162;8.548;2024-01-10T15:12:31;35.83;;;14.47;;
24637;SDS011;12773;50.162;8.548;2024-01-10T15:15:18;38.48;;;14.43;;
24637;SDS011;12773;50.162;8.548;2024-01-10T15:18:06;36.68;;;14.93;;
24637;SDS011;12773;50.162;8.548;2024-01-10T15:20:54;35.88;;;15.78;;
24637;SDS011;12773;50.162;8.548;2024-01-10T15:23:43;40.17;;;15.72;;
24637;SDS011;12773;50.162;8.548;2024-01-10T15:26:36;43.87;;;15.63;;
24637;SDS011;12773;50.162;8.548;2024-01-10T15:29:20;42.35;;;16.52;;
24637;SDS011;12773;50.162;8.548;2024-01-10T15:32:07;43.38;;;16.80;;
24637;SDS011;12773;50.162;8.548;2024-01-10T15:34:55;48.15;;;17.20;;
24637;SDS011;12773;50.162;8.548;2024-01-10T15:37:43;41.42;;;16.27;;
24637;SDS011;12773;50.162;8.548;2024-01-10T15:40:31;46.13;;;17.50;;
24637;SDS011;12773;50.162;8.548;2024-01-10T15:43:18;51.13;;;18.35;;
24637;SDS011;12773;50.162;8.548;2024-01-10T15:46:06;56.00;;;20.57;;
24637;SDS011;12773;50.162;8.548;2024-01-10T15:48:53;52.60;;;20.40;;
24637;SDS011;12773;50.162;8.548;2024-01-10T15:51:41;62.88;;;21.45;;
24637;SDS011;12773;50.162;8.548;2024-01-10T15:54:28;51.63;;;19.92;;
24637;SDS011;12773;50.162;8.548;2024-01-10T15:57:17;50.98;;;19.37;;
24637;SDS011;12773;50.162;8.548;2024-01-10T16:00:04;51.40;;;20.23;;
24637;SDS011;12773;50.162;8.548;2024-01-10T16:02:52;52.55;;;19.35;;
24637;SDS011;12773;50.162;8.548;2024-01-10T16:05:41;51.00;;;20.65;;
24637;SDS011;12773;50.162;8.548;2024-01-10T16:08:28;56.90;;;21.97;;
24637;SDS011;12773;50.162;8.548;2024-01-10T16:11:16;53.35;;;21.82;;
24637;SDS011;12773;50.162;8.548;2024-01-10T16:14:04;56.70;;;21.77;;
24637;SDS011;12773;50.162;8.548;2024-01-10T16:16:51;48.75;;;18.70;;
24637;SDS011;12773;50.162;8.548;2024-01-10T16:19:38;52.10;;;20.08;;
24637;SDS011;12773;50.162;8.548;2024-01-10T16:22:26;59.83;;;20.43;;
24637;SDS011;12773;50.162;8.548;2024-01-10T16:25:15;50.92;;;18.82;;
24637;SDS011;12773;50.162;8.548;2024-01-10T16:28:02;58.17;;;21.65;;
24637;SDS011;12773;50.162;8.548;2024-01-10T16:30:50;60.60;;;22.27;;